sensor_id;sensor_type;location;lat;lon;timestamp;temperature;humidity
49379;DHT22;35254;47.990;-1.608;2023-05-17T00:02:08;20.60;52.80
49379;DHT22;35254;47.990;-1.608;2023-05-17T00:04:33;20.60;52.80
49379;DHT22;35254;47.990;-1.608;2023-05-17T00:06:59;20.60;53.60
49379;DHT22;35254;47.990;-1.608;2023-05-17T00:09:24;20.60;54.50
49379;DHT22;35254;47.990;-1.608;2023-05-17T00:11:50;20.60;54.20
49379;DHT22;35254;47.990;-1.608;2023-05-17T00:14:16;20.60;54.60
49379;DHT22;35254;47.990;-1.608;2023-05-17T00:16:41;20.60;54.80
49379;DHT22;35254;47.990;-1.608;2023-05-17T00:19:07;20.60;54.50
49379;DHT22;35254;47.990;-1.608;2023-05-17T00:21:34;20.60;53.90
49379;DHT22;35254;47.990;-1.608;2023-05-17T00:24:00;20.60;53.70
49379;DHT22;35254;47.990;-1.608;2023-05-17T00:26:25;20.60;53.70
49379;DHT22;35254;47.990;-1.608;2023-05-17T00:28:51;20.60;53.80
49379;DHT22;35254;47.990;-1.608;2023-05-17T00:31:17;20.60;53.90
49379;DHT22;35254;47.990;-1.608;2023-05-17T00:33:42;20.60;54.10
49379;DHT22;35254;47.990;-1.608;2023-05-17T00:36:08;20.60;54.00
49379;DHT22;35254;47.990;-1.608;2023-05-17T00:38:34;20.60;54.10
49379;DHT22;35254;47.990;-1.608;2023-05-17T00:40:59;20.60;54.10
49379;DHT22;35254;47.990;-1.608;2023-05-17T00:43:25;20.60;54.10
49379;DHT22;35254;47.990;-1.608;2023-05-17T00:45:51;20.60;54.10
49379;DHT22;35254;47.990;-1.608;2023-05-17T00:48:17;20.60;54.10
49379;DHT22;35254;47.990;-1.608;2023-05-17T00:50:46;20.60;54.10
49379;DHT22;35254;47.990;-1.608;2023-05-17T00:53:12;20.60;54.20
49379;DHT22;35254;47.990;-1.608;2023-05-17T00:55:44;20.60;54.10
49379;DHT22;35254;47.990;-1.608;2023-05-17T00:58:13;20.60;54.10
49379;DHT22;35254;47.990;-1.608;2023-05-17T01:00:39;20.60;54.20
49379;DHT22;35254;47.990;-1.608;2023-05-17T01:03:05;20.60;54.20
49379;DHT22;35254;47.990;-1.608;2023-05-17T01:05:31;20.60;54.20
49379;DHT22;35254;47.990;-1.608;2023-05-17T01:07:57;20.60;54.20
49379;DHT22;35254;47.990;-1.608;2023-05-17T01:10:34;20.60;54.10
49379;DHT22;35254;47.990;-1.608;2023-05-17T01:13:18;20.60;54.20
49379;DHT22;35254;47.990;-1.608;2023-05-17T01:15:50;20.60;54.20
49379;DHT22;35254;47.990;-1.608;2023-05-17T01:18:22;20.60;53.90
49379;DHT22;35254;47.990;-1.608;2023-05-17T01:20:51;20.60;53.90
49379;DHT22;35254;47.990;-1.608;2023-05-17T01:25:58;20.60;54.30
49379;DHT22;35254;47.990;-1.608;2023-05-17T01:28:29;20.60;53.90
49379;DHT22;35254;47.990;-1.608;2023-05-17T01:30:58;20.60;53.70
49379;DHT22;35254;47.990;-1.608;2023-05-17T01:33:25;20.60;54.30
49379;DHT22;35254;47.990;-1.608;2023-05-17T01:35:51;20.60;54.10
49379;DHT22;35254;47.990;-1.608;2023-05-17T01:38:16;20.60;54.10
49379;DHT22;35254;47.990;-1.608;2023-05-17T01:40:50;20.60;53.90
49379;DHT22;35254;47.990;-1.608;2023-05-17T01:43:30;20.60;53.70
49379;DHT22;35254;47.990;-1.608;2023-05-17T01:46:37;20.60;53.40
49379;DHT22;35254;47.990;-1.608;2023-05-17T01:49:28;20.60;53.40
49379;DHT22;35254;47.990;-1.608;2023-05-17T01:52:04;20.60;53.50
49379;DHT22;35254;47.990;-1.608;2023-05-17T01:54:38;20.60;53.10
49379;DHT22;35254;47.990;-1.608;2023-05-17T01:57:05;20.60;53.10
49379;DHT22;35254;47.990;-1.608;2023-05-17T01:59:33;20.60;52.90
49379;DHT22;35254;47.990;-1.608;2023-05-17T02:02:00;20.60;52.60
49379;DHT22;35254;47.990;-1.608;2023-05-17T02:04:30;20.60;52.50
49379;DHT22;35254;47.990;-1.608;2023-05-17T02:06:56;20.60;52.60
49379;DHT22;35254;47.990;-1.608;2023-05-17T02:09:22;20.60;52.30
49379;DHT22;35254;47.990;-1.608;2023-05-17T02:11:47;20.60;52.50
49379;DHT22;35254;47.990;-1.608;2023-05-17T02:14:13;20.60;52.50
49379;DHT22;35254;47.990;-1.608;2023-05-17T02:16:39;20.60;52.00
49379;DHT22;35254;47.990;-1.608;2023-05-17T02:19:04;20.60;51.90
49379;DHT22;35254;47.990;-1.608;2023-05-17T02:21:31;20.60;52.00
49379;DHT22;35254;47.990;-1.608;2023-05-17T02:23:57;20.60;51.80
49379;DHT22;35254;47.990;-1.608;2023-05-17T02:26:22;20.60;51.60
49379;DHT22;35254;47.990;-1.608;2023-05-17T02:28:48;20.60;51.60
49379;DHT22;35254;47.990;-1.608;2023-05-17T02:31:14;20.60;51.60
49379;DHT22;35254;47.990;-1.608;2023-05-17T02:33:39;20.60;51.40
49379;DHT22;35254;47.990;-1.608;2023-05-17T02:36:05;20.60;51.20
49379;DHT22;35254;47.990;-1.608;2023-05-17T02:38:31;20.50;51.60
49379;DHT22;35254;47.990;-1.608;2023-05-17T02:40:57;20.60;51.00
49379;DHT22;35254;47.990;-1.608;2023-05-17T02:43:22;20.50;50.90
49379;DHT22;35254;47.990;-1.608;2023-05-17T02:45:48;20.60;51.10
49379;DHT22;35254;47.990;-1.608;2023-05-17T02:48:13;20.60;50.70
49379;DHT22;35254;47.990;-1.608;2023-05-17T02:50:39;20.50;51.10
49379;DHT22;35254;47.990;-1.608;2023-05-17T02:53:05;20.50;51.40
49379;DHT22;35254;47.990;-1.608;2023-05-17T02:55:30;20.50;50.80
49379;DHT22;35254;47.990;-1.608;2023-05-17T02:57:56;20.50;51.10
49379;DHT22;35254;47.990;-1.608;2023-05-17T03:00:21;20.60;50.80
49379;DHT22;35254;47.990;-1.608;2023-05-17T03:02:47;20.50;51.20
49379;DHT22;35254;47.990;-1.608;2023-05-17T03:05:12;20.60;50.80
49379;DHT22;35254;47.990;-1.608;2023-05-17T03:07:38;20.50;50.80
49379;DHT22;35254;47.990;-1.608;2023-05-17T03:10:04;20.50;50.80
49379;DHT22;35254;47.990;-1.608;2023-05-17T03:12:30;20.50;51.00
49379;DHT22;35254;47.990;-1.608;2023-05-17T03:14:55;20.50;50.40
49379;DHT22;35254;47.990;-1.608;2023-05-17T03:17:21;20.50;50.70
49379;DHT22;35254;47.990;-1.608;2023-05-17T03:19:46;20.50;50.60
49379;DHT22;35254;47.990;-1.608;2023-05-17T03:22:12;20.50;50.60
49379;DHT22;35254;47.990;-1.608;2023-05-17T03:24:37;20.50;50.40
49379;DHT22;35254;47.990;-1.608;2023-05-17T03:27:03;20.50;49.80
49379;DHT22;35254;47.990;-1.608;2023-05-17T03:29:29;20.50;50.00
49379;DHT22;35254;47.990;-1.608;2023-05-17T03:31:54;20.50;50.10
49379;DHT22;35254;47.990;-1.608;2023-05-17T03:34:20;20.50;49.80
49379;DHT22;35254;47.990;-1.608;2023-05-17T03:36:46;20.50;49.80
49379;DHT22;35254;47.990;-1.608;2023-05-17T03:39:11;20.50;49.90
49379;DHT22;35254;47.990;-1.608;2023-05-17T03:41:37;20.50;49.60
49379;DHT22;35254;47.990;-1.608;2023-05-17T03:44:03;20.50;49.60
49379;DHT22;35254;47.990;-1.608;2023-05-17T03:46:28;20.50;49.90
49379;DHT22;35254;47.990;-1.608;2023-05-17T03:48:54;20.50;50.00
49379;DHT22;35254;47.990;-1.608;2023-05-17T03:51:19;20.40;49.90
49379;DHT22;35254;47.990;-1.608;2023-05-17T03:53:45;20.40;49.50
49379;DHT22;35254;47.990;-1.608;2023-05-17T03:56:11;20.50;49.70
49379;DHT22;35254;47.990;-1.608;2023-05-17T03:58:37;20.40;49.50
49379;DHT22;35254;47.990;-1.608;2023-05-17T04:01:03;20.40;49.50
49379;DHT22;35254;47.990;-1.608;2023-05-17T04:03:28;20.40;49.30
49379;DHT22;35254;47.990;-1.608;2023-05-17T04:06:04;20.40;49.40
49379;DHT22;35254;47.990;-1.608;2023-05-17T04:08:34;20.40;49.60
49379;DHT22;35254;47.990;-1.608;2023-05-17T04:11:00;20.40;49.00
49379;DHT22;35254;47.990;-1.608;2023-05-17T04:13:35;20.40;49.60
49379;DHT22;35254;47.990;-1.608;2023-05-17T04:16:01;20.40;49.20
49379;DHT22;35254;47.990;-1.608;2023-05-17T04:18:27;20.40;49.20
49379;DHT22;35254;47.990;-1.608;2023-05-17T04:20:54;20.40;49.40
49379;DHT22;35254;47.990;-1.608;2023-05-17T04:23:20;20.40;49.60
49379;DHT22;35254;47.990;-1.608;2023-05-17T04:25:45;20.40;49.40
49379;DHT22;35254;47.990;-1.608;2023-05-17T04:28:11;20.40;49.10
49379;DHT22;35254;47.990;-1.608;2023-05-17T04:30:41;20.40;48.90
49379;DHT22;35254;47.990;-1.608;2023-05-17T04:33:07;20.40;49.10
49379;DHT22;35254;47.990;-1.608;2023-05-17T04:35:32;20.30;49.00
49379;DHT22;35254;47.990;-1.608;2023-05-17T04:37:58;20.30;49.00
49379;DHT22;35254;47.990;-1.608;2023-05-17T04:40:24;20.30;49.00
49379;DHT22;35254;47.990;-1.608;2023-05-17T04:42:50;20.30;49.20
49379;DHT22;35254;47.990;-1.608;2023-05-17T04:45:16;20.40;49.10
49379;DHT22;35254;47.990;-1.608;2023-05-17T04:47:42;20.30;48.90
49379;DHT22;35254;47.990;-1.608;2023-05-17T04:50:08;20.30;48.80
49379;DHT22;35254;47.990;-1.608;2023-05-17T04:52:33;20.30;49.00
49379;DHT22;35254;47.990;-1.608;2023-05-17T04:54:59;20.30;49.10
49379;DHT22;35254;47.990;-1.608;2023-05-17T04:57:25;20.30;48.80
49379;DHT22;35254;47.990;-1.608;2023-05-17T04:59:50;20.30;49.10
49379;DHT22;35254;47.990;-1.608;2023-05-17T05:02:16;20.30;49.30
49379;DHT22;35254;47.990;-1.608;2023-05-17T05:04:41;20.30;49.20
49379;DHT22;35254;47.990;-1.608;2023-05-17T05:07:07;20.30;49.30
49379;DHT22;35254;47.990;-1.608;2023-05-17T05:09:33;20.30;49.00
49379;DHT22;35254;47.990;-1.608;2023-05-17T05:11:58;20.20;49.10
49379;DHT22;35254;47.990;-1.608;2023-05-17T05:14:24;20.30;49.10
49379;DHT22;35254;47.990;-1.608;2023-05-17T05:16:49;20.30;49.10
49379;DHT22;35254;47.990;-1.608;2023-05-17T05:19:15;20.20;48.90
49379;DHT22;35254;47.990;-1.608;2023-05-17T05:21:44;20.20;48.90
49379;DHT22;35254;47.990;-1.608;2023-05-17T05:24:10;20.20;49.10
49379;DHT22;35254;47.990;-1.608;2023-05-17T05:26:36;20.20;49.10
49379;DHT22;35254;47.990;-1.608;2023-05-17T05:29:01;20.20;49.80
49379;DHT22;35254;47.990;-1.608;2023-05-17T05:31:27;20.20;50.00
49379;DHT22;35254;47.990;-1.608;2023-05-17T05:33:53;20.20;49.80
49379;DHT22;35254;47.990;-1.608;2023-05-17T05:36:19;20.20;49.80
49379;DHT22;35254;47.990;-1.608;2023-05-17T05:38:44;20.20;49.70
49379;DHT22;35254;47.990;-1.608;2023-05-17T05:41:10;20.20;49.80
49379;DHT22;35254;47.990;-1.608;2023-05-17T05:43:35;20.20;49.70
49379;DHT22;35254;47.990;-1.608;2023-05-17T05:46:02;20.20;49.50
49379;DHT22;35254;47.990;-1.608;2023-05-17T05:48:28;20.20;49.60
49379;DHT22;35254;47.990;-1.608;2023-05-17T05:50:53;20.20;49.70
49379;DHT22;35254;47.990;-1.608;2023-05-17T05:53:19;20.20;50.00
49379;DHT22;35254;47.990;-1.608;2023-05-17T05:55:45;20.20;49.60
49379;DHT22;35254;47.990;-1.608;2023-05-17T05:58:10;20.20;49.90
49379;DHT22;35254;47.990;-1.608;2023-05-17T06:00:36;20.20;49.90
49379;DHT22;35254;47.990;-1.608;2023-05-17T06:03:02;20.20;49.80
49379;DHT22;35254;47.990;-1.608;2023-05-17T06:05:27;20.20;50.30
49379;DHT22;35254;47.990;-1.608;2023-05-17T06:07:53;20.20;50.00
49379;DHT22;35254;47.990;-1.608;2023-05-17T06:10:18;20.20;49.90
49379;DHT22;35254;47.990;-1.608;2023-05-17T06:12:44;20.20;49.90
49379;DHT22;35254;47.990;-1.608;2023-05-17T06:15:10;20.10;50.20
49379;DHT22;35254;47.990;-1.608;2023-05-17T06:17:36;20.20;50.00
49379;DHT22;35254;47.990;-1.608;2023-05-17T06:20:01;20.20;50.10
49379;DHT22;35254;47.990;-1.608;2023-05-17T06:22:27;20.20;50.00
49379;DHT22;35254;47.990;-1.608;2023-05-17T06:24:53;20.20;50.20
49379;DHT22;35254;47.990;-1.608;2023-05-17T06:27:18;20.20;50.30
49379;DHT22;35254;47.990;-1.608;2023-05-17T06:29:44;20.20;50.10
49379;DHT22;35254;47.990;-1.608;2023-05-17T06:32:10;20.10;50.10
49379;DHT22;35254;47.990;-1.608;2023-05-17T06:34:35;20.20;50.30
49379;DHT22;35254;47.990;-1.608;2023-05-17T06:37:01;20.10;50.30
49379;DHT22;35254;47.990;-1.608;2023-05-17T06:39:27;20.10;50.30
49379;DHT22;35254;47.990;-1.608;2023-05-17T06:41:52;20.20;50.50
49379;DHT22;35254;47.990;-1.608;2023-05-17T06:44:18;20.10;50.50
49379;DHT22;35254;47.990;-1.608;2023-05-17T06:46:43;20.10;50.60
49379;DHT22;35254;47.990;-1.608;2023-05-17T06:49:09;20.10;50.80
49379;DHT22;35254;47.990;-1.608;2023-05-17T06:51:35;20.20;55.10
49379;DHT22;35254;47.990;-1.608;2023-05-17T06:54:00;20.10;53.90
49379;DHT22;35254;47.990;-1.608;2023-05-17T06:56:26;20.10;53.70
49379;DHT22;35254;47.990;-1.608;2023-05-17T06:58:52;20.10;53.00
49379;DHT22;35254;47.990;-1.608;2023-05-17T07:01:17;20.10;52.90
49379;DHT22;35254;47.990;-1.608;2023-05-17T07:03:43;20.10;53.10
49379;DHT22;35254;47.990;-1.608;2023-05-17T07:06:08;20.20;53.10
49379;DHT22;35254;47.990;-1.608;2023-05-17T07:08:34;20.10;52.70
49379;DHT22;35254;47.990;-1.608;2023-05-17T07:11:00;20.10;52.20
49379;DHT22;35254;47.990;-1.608;2023-05-17T07:13:27;20.10;52.40
49379;DHT22;35254;47.990;-1.608;2023-05-17T07:15:53;20.10;52.80
49379;DHT22;35254;47.990;-1.608;2023-05-17T07:18:18;20.10;52.80
49379;DHT22;35254;47.990;-1.608;2023-05-17T07:20:44;20.10;52.70
49379;DHT22;35254;47.990;-1.608;2023-05-17T07:23:10;20.10;52.40
49379;DHT22;35254;47.990;-1.608;2023-05-17T07:25:36;20.10;53.40
49379;DHT22;35254;47.990;-1.608;2023-05-17T07:28:03;20.10;52.80
49379;DHT22;35254;47.990;-1.608;2023-05-17T07:30:29;20.10;53.00
49379;DHT22;35254;47.990;-1.608;2023-05-17T07:32:55;20.10;52.90
49379;DHT22;35254;47.990;-1.608;2023-05-17T07:35:20;20.10;52.70
49379;DHT22;35254;47.990;-1.608;2023-05-17T07:37:46;20.10;52.70
49379;DHT22;35254;47.990;-1.608;2023-05-17T07:40:12;20.10;52.80
49379;DHT22;35254;47.990;-1.608;2023-05-17T07:42:37;20.10;52.70
49379;DHT22;35254;47.990;-1.608;2023-05-17T07:45:03;20.10;52.70
49379;DHT22;35254;47.990;-1.608;2023-05-17T07:47:29;20.10;52.80
49379;DHT22;35254;47.990;-1.608;2023-05-17T07:49:55;20.10;52.80
49379;DHT22;35254;47.990;-1.608;2023-05-17T07:52:21;20.10;52.70
49379;DHT22;35254;47.990;-1.608;2023-05-17T07:54:46;20.10;52.80
49379;DHT22;35254;47.990;-1.608;2023-05-17T07:57:12;20.10;52.80
49379;DHT22;35254;47.990;-1.608;2023-05-17T07:59:37;20.10;52.90
49379;DHT22;35254;47.990;-1.608;2023-05-17T08:02:03;20.10;52.90
49379;DHT22;35254;47.990;-1.608;2023-05-17T08:04:29;20.10;53.00
49379;DHT22;35254;47.990;-1.608;2023-05-17T08:06:54;20.10;53.10
49379;DHT22;35254;47.990;-1.608;2023-05-17T08:09:20;20.10;53.10
49379;DHT22;35254;47.990;-1.608;2023-05-17T08:11:46;20.10;53.10
49379;DHT22;35254;47.990;-1.608;2023-05-17T08:14:15;20.10;53.30
49379;DHT22;35254;47.990;-1.608;2023-05-17T08:16:42;20.10;53.40
49379;DHT22;35254;47.990;-1.608;2023-05-17T08:19:10;20.20;53.10
49379;DHT22;35254;47.990;-1.608;2023-05-17T08:21:40;20.20;53.10
49379;DHT22;35254;47.990;-1.608;2023-05-17T08:24:07;20.20;53.20
49379;DHT22;35254;47.990;-1.608;2023-05-17T08:26:33;20.20;53.10
49379;DHT22;35254;47.990;-1.608;2023-05-17T08:29:00;20.20;53.00
49379;DHT22;35254;47.990;-1.608;2023-05-17T08:31:27;20.30;53.00
49379;DHT22;35254;47.990;-1.608;2023-05-17T08:33:52;20.30;53.00
49379;DHT22;35254;47.990;-1.608;2023-05-17T08:36:18;20.30;52.90
49379;DHT22;35254;47.990;-1.608;2023-05-17T08:38:44;20.40;53.00
49379;DHT22;35254;47.990;-1.608;2023-05-17T08:41:12;20.40;52.80
49379;DHT22;35254;47.990;-1.608;2023-05-17T08:43:38;20.40;52.80
49379;DHT22;35254;47.990;-1.608;2023-05-17T08:46:04;20.40;52.80
49379;DHT22;35254;47.990;-1.608;2023-05-17T08:48:30;20.50;52.60
49379;DHT22;35254;47.990;-1.608;2023-05-17T08:50:56;20.50;52.50
49379;DHT22;35254;47.990;-1.608;2023-05-17T08:53:25;20.50;52.70
49379;DHT22;35254;47.990;-1.608;2023-05-17T08:55:59;20.60;52.50
49379;DHT22;35254;47.990;-1.608;2023-05-17T08:58:32;20.60;52.60
49379;DHT22;35254;47.990;-1.608;2023-05-17T09:01:00;20.50;52.30
49379;DHT22;35254;47.990;-1.608;2023-05-17T09:03:27;20.60;52.40
49379;DHT22;35254;47.990;-1.608;2023-05-17T09:05:54;20.60;52.40
49379;DHT22;35254;47.990;-1.608;2023-05-17T09:08:23;20.60;52.40
49379;DHT22;35254;47.990;-1.608;2023-05-17T09:10:49;20.60;52.30
49379;DHT22;35254;47.990;-1.608;2023-05-17T09:13:15;20.60;52.20
49379;DHT22;35254;47.990;-1.608;2023-05-17T09:15:46;20.60;52.40
49379;DHT22;35254;47.990;-1.608;2023-05-17T09:18:12;20.60;52.10
49379;DHT22;35254;47.990;-1.608;2023-05-17T09:20:38;20.70;52.10
49379;DHT22;35254;47.990;-1.608;2023-05-17T09:23:06;20.60;52.00
49379;DHT22;35254;47.990;-1.608;2023-05-17T09:25:34;20.60;51.90
49379;DHT22;35254;47.990;-1.608;2023-05-17T09:28:03;20.60;52.10
49379;DHT22;35254;47.990;-1.608;2023-05-17T09:30:32;20.60;52.00
49379;DHT22;35254;47.990;-1.608;2023-05-17T09:33:07;20.60;52.00
49379;DHT22;35254;47.990;-1.608;2023-05-17T09:35:34;20.60;51.80
49379;DHT22;35254;47.990;-1.608;2023-05-17T09:38:10;20.60;51.80
49379;DHT22;35254;47.990;-1.608;2023-05-17T09:40:44;20.60;51.70
49379;DHT22;35254;47.990;-1.608;2023-05-17T09:43:10;20.50;51.80
49379;DHT22;35254;47.990;-1.608;2023-05-17T09:45:37;20.60;51.80
49379;DHT22;35254;47.990;-1.608;2023-05-17T09:48:14;20.60;51.90
49379;DHT22;35254;47.990;-1.608;2023-05-17T09:55:47;20.60;51.00
49379;DHT22;35254;47.990;-1.608;2023-05-17T09:58:13;20.60;50.80
49379;DHT22;35254;47.990;-1.608;2023-05-17T10:00:42;20.60;51.30
49379;DHT22;35254;47.990;-1.608;2023-05-17T10:03:10;20.60;51.70
49379;DHT22;35254;47.990;-1.608;2023-05-17T10:05:36;20.60;51.80
49379;DHT22;35254;47.990;-1.608;2023-05-17T10:08:04;20.60;52.00
49379;DHT22;35254;47.990;-1.608;2023-05-17T10:10:30;20.60;52.00
49379;DHT22;35254;47.990;-1.608;2023-05-17T10:12:57;20.60;51.80
49379;DHT22;35254;47.990;-1.608;2023-05-17T10:15:25;20.60;52.30
49379;DHT22;35254;47.990;-1.608;2023-05-17T10:17:52;20.60;52.20
49379;DHT22;35254;47.990;-1.608;2023-05-17T10:20:20;20.60;52.30
49379;DHT22;35254;47.990;-1.608;2023-05-17T10:22:46;20.60;52.40
49379;DHT22;35254;47.990;-1.608;2023-05-17T10:25:12;20.60;52.50
49379;DHT22;35254;47.990;-1.608;2023-05-17T10:27:38;20.60;52.50
49379;DHT22;35254;47.990;-1.608;2023-05-17T10:30:06;20.60;52.50
49379;DHT22;35254;47.990;-1.608;2023-05-17T10:32:32;20.60;52.70
49379;DHT22;35254;47.990;-1.608;2023-05-17T10:34:58;20.60;52.70
49379;DHT22;35254;47.990;-1.608;2023-05-17T10:37:25;20.60;52.70
49379;DHT22;35254;47.990;-1.608;2023-05-17T10:39:55;20.60;52.80
49379;DHT22;35254;47.990;-1.608;2023-05-17T10:42:21;20.70;52.90
49379;DHT22;35254;47.990;-1.608;2023-05-17T10:44:47;20.60;52.90
49379;DHT22;35254;47.990;-1.608;2023-05-17T10:47:14;20.70;52.90
49379;DHT22;35254;47.990;-1.608;2023-05-17T10:49:40;20.70;52.90
49379;DHT22;35254;47.990;-1.608;2023-05-17T10:52:17;20.60;53.10
49379;DHT22;35254;47.990;-1.608;2023-05-17T10:54:47;20.60;53.00
49379;DHT22;35254;47.990;-1.608;2023-05-17T10:57:34;20.60;52.90
49379;DHT22;35254;47.990;-1.608;2023-05-17T11:00:05;20.60;53.10
49379;DHT22;35254;47.990;-1.608;2023-05-17T11:02:32;20.70;53.20
49379;DHT22;35254;47.990;-1.608;2023-05-17T11:04:58;20.70;53.30
49379;DHT22;35254;47.990;-1.608;2023-05-17T11:07:28;20.60;53.20
49379;DHT22;35254;47.990;-1.608;2023-05-17T11:12:34;20.70;53.40
49379;DHT22;35254;47.990;-1.608;2023-05-17T11:15:04;20.70;53.40
49379;DHT22;35254;47.990;-1.608;2023-05-17T11:22:58;20.70;53.00
49379;DHT22;35254;47.990;-1.608;2023-05-17T11:25:28;20.60;51.70
49379;DHT22;35254;47.990;-1.608;2023-05-17T11:27:54;20.60;51.40
49379;DHT22;35254;47.990;-1.608;2023-05-17T11:32:48;20.70;51.30
49379;DHT22;35254;47.990;-1.608;2023-05-17T11:35:16;20.70;51.10
49379;DHT22;35254;47.990;-1.608;2023-05-17T11:37:43;20.70;51.20
49379;DHT22;35254;47.990;-1.608;2023-05-17T11:40:10;20.60;50.90
49379;DHT22;35254;47.990;-1.608;2023-05-17T11:42:38;20.60;50.80
49379;DHT22;35254;47.990;-1.608;2023-05-17T11:45:04;20.60;51.00
49379;DHT22;35254;47.990;-1.608;2023-05-17T11:47:31;20.60;51.10
49379;DHT22;35254;47.990;-1.608;2023-05-17T11:50:02;20.60;51.30
49379;DHT22;35254;47.990;-1.608;2023-05-17T11:52:28;20.60;51.50
49379;DHT22;35254;47.990;-1.608;2023-05-17T11:54:56;20.60;51.60
49379;DHT22;35254;47.990;-1.608;2023-05-17T11:57:28;20.60;51.80
49379;DHT22;35254;47.990;-1.608;2023-05-17T11:59:59;20.60;51.90
49379;DHT22;35254;47.990;-1.608;2023-05-17T12:02:29;20.60;52.10
49379;DHT22;35254;47.990;-1.608;2023-05-17T12:04:55;20.60;52.20
49379;DHT22;35254;47.990;-1.608;2023-05-17T12:07:20;20.60;52.20
49379;DHT22;35254;47.990;-1.608;2023-05-17T12:09:46;20.60;52.20
49379;DHT22;35254;47.990;-1.608;2023-05-17T12:12:12;20.60;52.20
49379;DHT22;35254;47.990;-1.608;2023-05-17T12:14:37;20.60;52.20
49379;DHT22;35254;47.990;-1.608;2023-05-17T12:17:07;20.60;52.40
49379;DHT22;35254;47.990;-1.608;2023-05-17T12:19:34;20.60;52.40
49379;DHT22;35254;47.990;-1.608;2023-05-17T12:22:09;20.60;52.60
49379;DHT22;35254;47.990;-1.608;2023-05-17T12:24:42;20.60;52.60
49379;DHT22;35254;47.990;-1.608;2023-05-17T12:27:08;20.60;52.60
49379;DHT22;35254;47.990;-1.608;2023-05-17T12:29:34;20.60;52.70
49379;DHT22;35254;47.990;-1.608;2023-05-17T12:32:00;20.70;52.80
49379;DHT22;35254;47.990;-1.608;2023-05-17T12:34:27;20.60;52.80
49379;DHT22;35254;47.990;-1.608;2023-05-17T12:36:54;20.70;52.80
49379;DHT22;35254;47.990;-1.608;2023-05-17T12:39:20;20.70;52.90
49379;DHT22;35254;47.990;-1.608;2023-05-17T12:41:50;20.70;52.90
49379;DHT22;35254;47.990;-1.608;2023-05-17T12:44:17;20.70;52.90
49379;DHT22;35254;47.990;-1.608;2023-05-17T12:46:45;20.70;52.90
49379;DHT22;35254;47.990;-1.608;2023-05-17T12:49:18;20.70;52.90
49379;DHT22;35254;47.990;-1.608;2023-05-17T12:51:46;20.70;52.90
49379;DHT22;35254;47.990;-1.608;2023-05-17T12:54:27;20.70;52.90
49379;DHT22;35254;47.990;-1.608;2023-05-17T12:56:53;20.70;52.90
49379;DHT22;35254;47.990;-1.608;2023-05-17T12:59:20;20.70;52.80
49379;DHT22;35254;47.990;-1.608;2023-05-17T13:01:51;20.70;52.90
49379;DHT22;35254;47.990;-1.608;2023-05-17T13:04:18;20.70;52.80
49379;DHT22;35254;47.990;-1.608;2023-05-17T13:06:53;20.70;52.80
49379;DHT22;35254;47.990;-1.608;2023-05-17T13:09:21;20.70;52.80
49379;DHT22;35254;47.990;-1.608;2023-05-17T13:11:56;20.70;52.80
49379;DHT22;35254;47.990;-1.608;2023-05-17T13:14:45;20.70;52.70
49379;DHT22;35254;47.990;-1.608;2023-05-17T13:17:56;20.70;52.90
49379;DHT22;35254;47.990;-1.608;2023-05-17T13:20:08;20.70;52.80
49379;DHT22;35254;47.990;-1.608;2023-05-17T13:22:34;20.70;53.00
49379;DHT22;35254;47.990;-1.608;2023-05-17T13:25:02;20.70;53.00
49379;DHT22;35254;47.990;-1.608;2023-05-17T13:27:27;20.70;53.00
49379;DHT22;35254;47.990;-1.608;2023-05-17T13:29:53;20.70;53.10
49379;DHT22;35254;47.990;-1.608;2023-05-17T13:32:20;20.70;53.20
49379;DHT22;35254;47.990;-1.608;2023-05-17T13:34:45;20.70;53.20
49379;DHT22;35254;47.990;-1.608;2023-05-17T13:37:11;20.70;53.10
49379;DHT22;35254;47.990;-1.608;2023-05-17T13:39:36;20.70;53.10
49379;DHT22;35254;47.990;-1.608;2023-05-17T13:42:02;20.70;53.10
49379;DHT22;35254;47.990;-1.608;2023-05-17T13:44:28;20.70;53.10
49379;DHT22;35254;47.990;-1.608;2023-05-17T13:46:53;20.70;53.00
49379;DHT22;35254;47.990;-1.608;2023-05-17T13:49:19;20.70;53.00
49379;DHT22;35254;47.990;-1.608;2023-05-17T13:51:45;20.70;53.10
49379;DHT22;35254;47.990;-1.608;2023-05-17T13:54:11;20.80;53.20
49379;DHT22;35254;47.990;-1.608;2023-05-17T13:56:37;20.70;53.20
49379;DHT22;35254;47.990;-1.608;2023-05-17T13:59:02;20.70;52.80
49379;DHT22;35254;47.990;-1.608;2023-05-17T14:01:28;20.70;52.90
49379;DHT22;35254;47.990;-1.608;2023-05-17T14:03:53;20.80;53.00
49379;DHT22;35254;47.990;-1.608;2023-05-17T14:06:19;20.70;53.10
49379;DHT22;35254;47.990;-1.608;2023-05-17T14:08:45;20.70;53.10
49379;DHT22;35254;47.990;-1.608;2023-05-17T14:11:11;20.70;53.30
49379;DHT22;35254;47.990;-1.608;2023-05-17T14:13:37;20.80;53.30
49379;DHT22;35254;47.990;-1.608;2023-05-17T14:16:03;20.80;53.40
49379;DHT22;35254;47.990;-1.608;2023-05-17T14:18:29;20.80;53.50
49379;DHT22;35254;47.990;-1.608;2023-05-17T14:20:55;20.80;53.40
49379;DHT22;35254;47.990;-1.608;2023-05-17T14:23:21;20.80;53.50
49379;DHT22;35254;47.990;-1.608;2023-05-17T14:25:47;20.80;53.50
49379;DHT22;35254;47.990;-1.608;2023-05-17T14:28:14;20.70;53.50
49379;DHT22;35254;47.990;-1.608;2023-05-17T14:30:42;20.80;53.50
49379;DHT22;35254;47.990;-1.608;2023-05-17T14:33:08;20.80;53.50
49379;DHT22;35254;47.990;-1.608;2023-05-17T14:35:34;20.80;53.60
49379;DHT22;35254;47.990;-1.608;2023-05-17T14:38:00;20.80;53.60
49379;DHT22;35254;47.990;-1.608;2023-05-17T14:40:25;20.80;53.60
49379;DHT22;35254;47.990;-1.608;2023-05-17T14:42:51;20.80;53.60
49379;DHT22;35254;47.990;-1.608;2023-05-17T14:45:17;20.80;53.50
49379;DHT22;35254;47.990;-1.608;2023-05-17T14:47:43;20.80;53.60
49379;DHT22;35254;47.990;-1.608;2023-05-17T14:50:09;20.80;53.50
49379;DHT22;35254;47.990;-1.608;2023-05-17T14:52:35;20.80;53.50
49379;DHT22;35254;47.990;-1.608;2023-05-17T14:55:01;20.80;53.50
49379;DHT22;35254;47.990;-1.608;2023-05-17T14:57:26;20.80;53.50
49379;DHT22;35254;47.990;-1.608;2023-05-17T14:59:52;20.80;53.40
49379;DHT22;35254;47.990;-1.608;2023-05-17T15:02:18;20.80;53.40
49379;DHT22;35254;47.990;-1.608;2023-05-17T15:04:43;20.80;53.30
49379;DHT22;35254;47.990;-1.608;2023-05-17T15:07:09;20.80;53.40
49379;DHT22;35254;47.990;-1.608;2023-05-17T15:09:41;20.80;53.40
49379;DHT22;35254;47.990;-1.608;2023-05-17T15:12:09;20.80;53.40
49379;DHT22;35254;47.990;-1.608;2023-05-17T15:14:35;20.80;53.50
49379;DHT22;35254;47.990;-1.608;2023-05-17T15:17:01;20.80;53.60
49379;DHT22;35254;47.990;-1.608;2023-05-17T15:19:28;20.80;53.70
49379;DHT22;35254;47.990;-1.608;2023-05-17T15:21:53;20.80;53.60
49379;DHT22;35254;47.990;-1.608;2023-05-17T15:24:19;20.80;53.60
49379;DHT22;35254;47.990;-1.608;2023-05-17T15:26:45;20.90;53.60
49379;DHT22;35254;47.990;-1.608;2023-05-17T15:29:10;20.80;53.50
49379;DHT22;35254;47.990;-1.608;2023-05-17T15:31:36;20.80;53.50
49379;DHT22;35254;47.990;-1.608;2023-05-17T15:34:02;20.80;53.50